sensor_id;sensor_type;location;lat;lon;timestamp;P1;durP1;ratioP1;P2;durP2;ratioP2
4521;SDS011;2273;48.464;11.926;2022-11-15T00:01:48;18.02;;;12.65;;
4521;SDS011;2273;48.464;11.926;2022-11-15T00:04:32;22.15;;;14.52;;
4521;SDS011;2273;48.464;11.926;2022-11-15T00:07:16;24.83;;;14.20;;
4521;SDS011;2273;48.464;11.926;2022-11-15T00:10:00;25.33;;;14.43;;
4521;SDS011;2273;48.464;11.926;2022-11-15T00:12:44;19.70;;;13.55;;
4521;SDS011;2273;48.464;11.926;2022-11-15T00:15:29;23.27;;;13.63;;
4521;SDS011;2273;48.464;11.926;2022-11-15T00:18:13;22.23;;;13.55;;
4521;SDS011;2273;48.464;11.926;2022-11-15T00:21:03;22.77;;;14.37;;
4521;SDS011;2273;48.464;11.926;2022-11-15T00:23:49;27.93;;;14.97;;
4521;SDS011;2273;48.464;11.926;2022-11-15T00:26:33;25.50;;;15.75;;
4521;SDS011;2273;48.464;11.926;2022-11-15T00:29:17;21.05;;;13.95;;
4521;SDS011;2273;48.464;11.926;2022-11-15T00:32:01;17.53;;;11.97;;
4521;SDS011;2273;48.464;11.926;2022-11-15T00:34:46;18.20;;;11.43;;
4521;SDS011;2273;48.464;11.926;2022-11-15T00:37:30;18.10;;;10.40;;
4521;SDS011;2273;48.464;11.926;2022-11-15T00:40:14;15.23;;;10.47;;
4521;SDS011;2273;48.464;11.926;2022-11-15T00:42:59;16.08;;;10.98;;
4521;SDS011;2273;48.464;11.926;2022-11-15T00:45:43;17.52;;;11.10;;
4521;SDS011;2273;48.464;11.926;2022-11-15T00:48:27;23.40;;;12.30;;
4521;SDS011;2273;48.464;11.926;2022-11-15T00:51:11;16.40;;;11.50;;
4521;SDS011;2273;48.464;11.926;2022-11-15T00:53:55;23.27;;;11.57;;
4521;SDS011;2273;48.464;11.926;2022-11-15T00:56:39;20.73;;;13.07;;
4521;SDS011;2273;48.464;11.926;2022-11-15T00:59:23;21.88;;;13.65;;
4521;SDS011;2273;48.464;11.926;2022-11-15T01:02:07;22.92;;;13.35;;
4521;SDS011;2273;48.464;11.926;2022-11-15T01:04:51;19.15;;;11.82;;
4521;SDS011;2273;48.464;11.926;2022-11-15T01:07:36;15.48;;;11.13;;
4521;SDS011;2273;48.464;11.926;2022-11-15T01:10:20;17.92;;;10.50;;
4521;SDS011;2273;48.464;11.926;2022-11-15T01:13:05;15.88;;;10.15;;
4521;SDS011;2273;48.464;11.926;2022-11-15T01:15:49;14.55;;;10.05;;
4521;SDS011;2273;48.464;11.926;2022-11-15T01:18:33;19.40;;;12.00;;
4521;SDS011;2273;48.464;11.926;2022-11-15T01:21:18;19.53;;;12.23;;
4521;SDS011;2273;48.464;11.926;2022-11-15T01:24:03;20.65;;;11.77;;
4521;SDS011;2273;48.464;11.926;2022-11-15T01:26:47;21.80;;;13.80;;
4521;SDS011;2273;48.464;11.926;2022-11-15T01:29:31;26.92;;;15.80;;
4521;SDS011;2273;48.464;11.926;2022-11-15T01:32:16;26.27;;;16.30;;
4521;SDS011;2273;48.464;11.926;2022-11-15T01:35:00;27.00;;;15.80;;
4521;SDS011;2273;48.464;11.926;2022-11-15T01:37:44;27.65;;;13.25;;
4521;SDS011;2273;48.464;11.926;2022-11-15T01:40:28;19.75;;;12.60;;
4521;SDS011;2273;48.464;11.926;2022-11-15T01:43:26;16.83;;;10.85;;
4521;SDS011;2273;48.464;11.926;2022-11-15T01:49:11;17.43;;;10.10;;
4521;SDS011;2273;48.464;11.926;2022-11-15T01:51:58;15.18;;;9.75;;
4521;SDS011;2273;48.464;11.926;2022-11-15T01:54:45;19.15;;;9.50;;
4521;SDS011;2273;48.464;11.926;2022-11-15T01:57:30;12.70;;;8.77;;
4521;SDS011;2273;48.464;11.926;2022-11-15T02:00:14;19.15;;;10.63;;
4521;SDS011;2273;48.464;11.926;2022-11-15T02:02:58;17.42;;;9.52;;
4521;SDS011;2273;48.464;11.926;2022-11-15T02:05:43;16.80;;;10.70;;
4521;SDS011;2273;48.464;11.926;2022-11-15T02:08:27;14.48;;;9.05;;
4521;SDS011;2273;48.464;11.926;2022-11-15T02:11:11;15.50;;;9.98;;
4521;SDS011;2273;48.464;11.926;2022-11-15T02:13:55;15.10;;;9.63;;
4521;SDS011;2273;48.464;11.926;2022-11-15T02:16:44;17.83;;;10.18;;
4521;SDS011;2273;48.464;11.926;2022-11-15T02:20:04;17.58;;;10.05;;
4521;SDS011;2273;48.464;11.926;2022-11-15T02:32:54;19.15;;;13.00;;
4521;SDS011;2273;48.464;11.926;2022-11-15T02:35:45;19.30;;;11.52;;
4521;SDS011;2273;48.464;11.926;2022-11-15T02:38:40;24.92;;;13.10;;
4521;SDS011;2273;48.464;11.926;2022-11-15T02:44:39;22.00;;;11.05;;
4521;SDS011;2273;48.464;11.926;2022-11-15T02:47:27;20.75;;;11.82;;
4521;SDS011;2273;48.464;11.926;2022-11-15T02:50:13;20.50;;;12.27;;
4521;SDS011;2273;48.464;11.926;2022-11-15T02:53:00;18.60;;;11.73;;
4521;SDS011;2273;48.464;11.926;2022-11-15T02:55:45;23.15;;;11.20;;
4521;SDS011;2273;48.464;11.926;2022-11-15T03:02:11;21.02;;;12.10;;
4521;SDS011;2273;48.464;11.926;2022-11-15T03:04:44;16.92;;;10.60;;
4521;SDS011;2273;48.464;11.926;2022-11-15T03:10:23;16.95;;;10.40;;
4521;SDS011;2273;48.464;11.926;2022-11-15T03:13:13;19.45;;;10.73;;
4521;SDS011;2273;48.464;11.926;2022-11-15T03:16:04;21.20;;;11.27;;
4521;SDS011;2273;48.464;11.926;2022-11-15T03:18:55;26.98;;;11.25;;
4521;SDS011;2273;48.464;11.926;2022-11-15T03:21:43;20.77;;;12.50;;
4521;SDS011;2273;48.464;11.926;2022-11-15T03:24:28;19.77;;;12.13;;
4521;SDS011;2273;48.464;11.926;2022-11-15T03:27:13;19.42;;;11.95;;
4521;SDS011;2273;48.464;11.926;2022-11-15T03:30:01;24.38;;;13.45;;
4521;SDS011;2273;48.464;11.926;2022-11-15T03:32:47;24.02;;;14.18;;
4521;SDS011;2273;48.464;11.926;2022-11-15T03:35:36;29.83;;;14.02;;
4521;SDS011;2273;48.464;11.926;2022-11-15T03:38:23;31.75;;;15.23;;
4521;SDS011;2273;48.464;11.926;2022-11-15T03:41:11;43.50;;;13.93;;
4521;SDS011;2273;48.464;11.926;2022-11-15T03:44:03;35.55;;;14.30;;
4521;SDS011;2273;48.464;11.926;2022-11-15T03:46:57;21.63;;;13.10;;
4521;SDS011;2273;48.464;11.926;2022-11-15T03:49:51;27.77;;;12.07;;
4521;SDS011;2273;48.464;11.926;2022-11-15T03:52:37;21.67;;;12.98;;
4521;SDS011;2273;48.464;11.926;2022-11-15T03:55:21;24.13;;;14.70;;
4521;SDS011;2273;48.464;11.926;2022-11-15T03:58:05;23.92;;;13.85;;
4521;SDS011;2273;48.464;11.926;2022-11-15T04:00:49;23.95;;;13.05;;
4521;SDS011;2273;48.464;11.926;2022-11-15T04:03:33;23.45;;;13.13;;
4521;SDS011;2273;48.464;11.926;2022-11-15T04:06:18;21.98;;;12.57;;
4521;SDS011;2273;48.464;11.926;2022-11-15T04:09:02;20.25;;;12.95;;
4521;SDS011;2273;48.464;11.926;2022-11-15T04:11:46;31.95;;;15.05;;
4521;SDS011;2273;48.464;11.926;2022-11-15T04:14:30;22.92;;;12.25;;
4521;SDS011;2273;48.464;11.926;2022-11-15T04:17:14;22.27;;;13.63;;
4521;SDS011;2273;48.464;11.926;2022-11-15T04:19:58;27.35;;;14.80;;
4521;SDS011;2273;48.464;11.926;2022-11-15T04:23:01;25.83;;;13.13;;
4521;SDS011;2273;48.464;11.926;2022-11-15T04:26:07;27.48;;;13.43;;
4521;SDS011;2273;48.464;11.926;2022-11-15T04:28:53;21.02;;;12.45;;
4521;SDS011;2273;48.464;11.926;2022-11-15T04:31:56;23.10;;;12.57;;
4521;SDS011;2273;48.464;11.926;2022-11-15T04:34:40;19.98;;;13.10;;
4521;SDS011;2273;48.464;11.926;2022-11-15T04:37:24;25.63;;;13.48;;
4521;SDS011;2273;48.464;11.926;2022-11-15T04:40:08;23.42;;;13.57;;
4521;SDS011;2273;48.464;11.926;2022-11-15T04:42:53;24.55;;;13.52;;
4521;SDS011;2273;48.464;11.926;2022-11-15T04:45:37;26.45;;;14.30;;
4521;SDS011;2273;48.464;11.926;2022-11-15T04:48:21;26.75;;;13.27;;
4521;SDS011;2273;48.464;11.926;2022-11-15T04:51:05;23.35;;;13.27;;
4521;SDS011;2273;48.464;11.926;2022-11-15T04:53:49;22.23;;;13.25;;
4521;SDS011;2273;48.464;11.926;2022-11-15T04:56:34;24.13;;;13.60;;
4521;SDS011;2273;48.464;11.926;2022-11-15T04:59:18;17.50;;;12.70;;
4521;SDS011;2273;48.464;11.926;2022-11-15T05:02:01;20.38;;;12.80;;
4521;SDS011;2273;48.464;11.926;2022-11-15T05:04:46;21.65;;;12.82;;
4521;SDS011;2273;48.464;11.926;2022-11-15T05:07:30;23.17;;;13.38;;
4521;SDS011;2273;48.464;11.926;2022-11-15T05:10:14;24.13;;;14.10;;
4521;SDS011;2273;48.464;11.926;2022-11-15T05:12:58;25.02;;;14.75;;
4521;SDS011;2273;48.464;11.926;2022-11-15T05:15:42;26.58;;;15.15;;
4521;SDS011;2273;48.464;11.926;2022-11-15T05:18:26;79.38;;;15.50;;
4521;SDS011;2273;48.464;11.926;2022-11-15T05:21:11;66.20;;;17.25;;
4521;SDS011;2273;48.464;11.926;2022-11-15T05:23:57;32.42;;;16.00;;
4521;SDS011;2273;48.464;11.926;2022-11-15T05:26:41;37.60;;;17.40;;
4521;SDS011;2273;48.464;11.926;2022-11-15T05:29:25;47.00;;;16.70;;
4521;SDS011;2273;48.464;11.926;2022-11-15T05:32:09;48.88;;;18.95;;
4521;SDS011;2273;48.464;11.926;2022-11-15T05:34:55;51.28;;;18.52;;
4521;SDS011;2273;48.464;11.926;2022-11-15T05:37:39;39.22;;;19.15;;
4521;SDS011;2273;48.464;11.926;2022-11-15T05:40:23;31.58;;;17.33;;
4521;SDS011;2273;48.464;11.926;2022-11-15T05:43:08;46.00;;;17.88;;
4521;SDS011;2273;48.464;11.926;2022-11-15T05:45:54;38.70;;;17.50;;
4521;SDS011;2273;48.464;11.926;2022-11-15T05:48:38;29.38;;;15.45;;
4521;SDS011;2273;48.464;11.926;2022-11-15T05:51:24;25.98;;;15.90;;
4521;SDS011;2273;48.464;11.926;2022-11-15T05:54:11;29.42;;;15.13;;
4521;SDS011;2273;48.464;11.926;2022-11-15T05:56:55;22.25;;;14.68;;
4521;SDS011;2273;48.464;11.926;2022-11-15T05:59:39;23.23;;;12.80;;
4521;SDS011;2273;48.464;11.926;2022-11-15T06:02:24;23.17;;;13.57;;
4521;SDS011;2273;48.464;11.926;2022-11-15T06:05:08;24.48;;;13.82;;
4521;SDS011;2273;48.464;11.926;2022-11-15T06:07:52;28.63;;;14.98;;
4521;SDS011;2273;48.464;11.926;2022-11-15T06:10:37;25.63;;;14.32;;
4521;SDS011;2273;48.464;11.926;2022-11-15T06:13:21;34.45;;;14.57;;
4521;SDS011;2273;48.464;11.926;2022-11-15T06:16:05;61.00;;;16.75;;
4521;SDS011;2273;48.464;11.926;2022-11-15T06:18:50;57.40;;;15.35;;
4521;SDS011;2273;48.464;11.926;2022-11-15T06:21:34;73.03;;;16.75;;
4521;SDS011;2273;48.464;11.926;2022-11-15T06:24:18;28.17;;;16.33;;
4521;SDS011;2273;48.464;11.926;2022-11-15T06:27:02;26.73;;;15.23;;
4521;SDS011;2273;48.464;11.926;2022-11-15T06:29:46;26.50;;;14.98;;
4521;SDS011;2273;48.464;11.926;2022-11-15T06:32:31;26.38;;;15.35;;
4521;SDS011;2273;48.464;11.926;2022-11-15T06:35:15;48.58;;;16.00;;
4521;SDS011;2273;48.464;11.926;2022-11-15T06:38:03;28.73;;;15.05;;
4521;SDS011;2273;48.464;11.926;2022-11-15T06:40:48;23.48;;;12.85;;
4521;SDS011;2273;48.464;11.926;2022-11-15T06:43:33;21.20;;;12.05;;
4521;SDS011;2273;48.464;11.926;2022-11-15T06:46:17;24.13;;;14.20;;
4521;SDS011;2273;48.464;11.926;2022-11-15T06:49:02;27.55;;;13.73;;
4521;SDS011;2273;48.464;11.926;2022-11-15T06:51:46;45.60;;;15.80;;
4521;SDS011;2273;48.464;11.926;2022-11-15T06:54:30;22.75;;;14.32;;
4521;SDS011;2273;48.464;11.926;2022-11-15T06:57:14;27.95;;;15.13;;
4521;SDS011;2273;48.464;11.926;2022-11-15T06:59:58;49.97;;;15.60;;
4521;SDS011;2273;48.464;11.926;2022-11-15T07:02:42;86.63;;;19.15;;
4521;SDS011;2273;48.464;11.926;2022-11-15T07:05:26;181.30;;;19.77;;
4521;SDS011;2273;48.464;11.926;2022-11-15T07:08:10;44.45;;;16.50;;
4521;SDS011;2273;48.464;11.926;2022-11-15T07:10:57;48.92;;;14.88;;
4521;SDS011;2273;48.464;11.926;2022-11-15T07:13:43;52.45;;;15.73;;
4521;SDS011;2273;48.464;11.926;2022-11-15T07:16:26;23.75;;;15.73;;
4521;SDS011;2273;48.464;11.926;2022-11-15T07:19:11;36.33;;;15.82;;
4521;SDS011;2273;48.464;11.926;2022-11-15T07:21:55;165.55;;;19.48;;
4521;SDS011;2273;48.464;11.926;2022-11-15T07:24:39;53.15;;;18.23;;
4521;SDS011;2273;48.464;11.926;2022-11-15T07:27:23;86.32;;;18.83;;
4521;SDS011;2273;48.464;11.926;2022-11-15T07:30:07;97.95;;;18.48;;
4521;SDS011;2273;48.464;11.926;2022-11-15T07:32:59;71.15;;;17.88;;
4521;SDS011;2273;48.464;11.926;2022-11-15T07:35:43;55.88;;;18.42;;
4521;SDS011;2273;48.464;11.926;2022-11-15T07:38:30;30.65;;;18.30;;
4521;SDS011;2273;48.464;11.926;2022-11-15T07:41:14;36.10;;;18.00;;
4521;SDS011;2273;48.464;11.926;2022-11-15T07:43:58;73.82;;;20.95;;
4521;SDS011;2273;48.464;11.926;2022-11-15T07:46:42;42.30;;;18.20;;
4521;SDS011;2273;48.464;11.926;2022-11-15T07:49:26;34.50;;;18.17;;
4521;SDS011;2273;48.464;11.926;2022-11-15T07:52:10;49.58;;;18.85;;
4521;SDS011;2273;48.464;11.926;2022-11-15T07:54:54;90.57;;;19.88;;
4521;SDS011;2273;48.464;11.926;2022-11-15T07:57:38;73.07;;;18.85;;
4521;SDS011;2273;48.464;11.926;2022-11-15T08:00:23;211.25;;;21.73;;
4521;SDS011;2273;48.464;11.926;2022-11-15T08:03:08;72.85;;;18.50;;
4521;SDS011;2273;48.464;11.926;2022-11-15T08:05:53;106.65;;;20.30;;
4521;SDS011;2273;48.464;11.926;2022-11-15T08:08:37;76.25;;;19.58;;
4521;SDS011;2273;48.464;11.926;2022-11-15T08:11:21;88.55;;;19.70;;
4521;SDS011;2273;48.464;11.926;2022-11-15T08:14:06;175.73;;;20.02;;
4521;SDS011;2273;48.464;11.926;2022-11-15T08:16:50;87.43;;;19.55;;
4521;SDS011;2273;48.464;11.926;2022-11-15T08:19:34;100.85;;;19.13;;
4521;SDS011;2273;48.464;11.926;2022-11-15T08:22:18;88.93;;;18.50;;
4521;SDS011;2273;48.464;11.926;2022-11-15T08:25:02;176.52;;;21.40;;
4521;SDS011;2273;48.464;11.926;2022-11-15T08:27:46;161.25;;;19.70;;
4521;SDS011;2273;48.464;11.926;2022-11-15T08:30:33;67.25;;;18.17;;
4521;SDS011;2273;48.464;11.926;2022-11-15T08:33:20;125.93;;;22.17;;
4521;SDS011;2273;48.464;11.926;2022-11-15T08:36:04;76.13;;;19.35;;
4521;SDS011;2273;48.464;11.926;2022-11-15T08:38:48;62.53;;;16.65;;
4521;SDS011;2273;48.464;11.926;2022-11-15T08:41:33;29.15;;;16.50;;
4521;SDS011;2273;48.464;11.926;2022-11-15T08:44:19;27.27;;;15.57;;
4521;SDS011;2273;48.464;11.926;2022-11-15T08:47:03;34.42;;;19.50;;
4521;SDS011;2273;48.464;11.926;2022-11-15T08:49:47;39.90;;;20.42;;
4521;SDS011;2273;48.464;11.926;2022-11-15T08:52:31;68.65;;;18.95;;
4521;SDS011;2273;48.464;11.926;2022-11-15T08:55:16;27.02;;;16.23;;
4521;SDS011;2273;48.464;11.926;2022-11-15T08:58:00;28.67;;;16.98;;
4521;SDS011;2273;48.464;11.926;2022-11-15T09:00:44;32.85;;;18.23;;
4521;SDS011;2273;48.464;11.926;2022-11-15T09:03:28;30.20;;;17.77;;
4521;SDS011;2273;48.464;11.926;2022-11-15T09:06:12;30.55;;;18.75;;
4521;SDS011;2273;48.464;11.926;2022-11-15T09:08:56;30.38;;;19.88;;
4521;SDS011;2273;48.464;11.926;2022-11-15T09:11:40;36.75;;;20.58;;
4521;SDS011;2273;48.464;11.926;2022-11-15T09:14:25;29.52;;;19.67;;
4521;SDS011;2273;48.464;11.926;2022-11-15T09:17:09;39.60;;;20.67;;
4521;SDS011;2273;48.464;11.926;2022-11-15T09:19:53;44.72;;;19.27;;
4521;SDS011;2273;48.464;11.926;2022-11-15T09:22:37;31.77;;;19.42;;
4521;SDS011;2273;48.464;11.926;2022-11-15T09:25:22;36.92;;;20.10;;
4521;SDS011;2273;48.464;11.926;2022-11-15T09:28:07;33.70;;;19.75;;
4521;SDS011;2273;48.464;11.926;2022-11-15T09:30:51;38.80;;;19.70;;
4521;SDS011;2273;48.464;11.926;2022-11-15T09:33:35;31.75;;;18.13;;
4521;SDS011;2273;48.464;11.926;2022-11-15T09:36:19;38.15;;;19.67;;
4521;SDS011;2273;48.464;11.926;2022-11-15T09:39:03;34.83;;;19.80;;
4521;SDS011;2273;48.464;11.926;2022-11-15T09:41:53;32.83;;;18.45;;
4521;SDS011;2273;48.464;11.926;2022-11-15T09:48:11;33.67;;;18.27;;
4521;SDS011;2273;48.464;11.926;2022-11-15T09:51:03;30.80;;;18.33;;
4521;SDS011;2273;48.464;11.926;2022-11-15T09:53:30;31.30;;;17.57;;
4521;SDS011;2273;48.464;11.926;2022-11-15T09:56:01;28.23;;;17.90;;
4521;SDS011;2273;48.464;11.926;2022-11-15T10:01:16;27.60;;;16.70;;
4521;SDS011;2273;48.464;11.926;2022-11-15T10:03:44;24.27;;;14.03;;
4521;SDS011;2273;48.464;11.926;2022-11-15T10:06:16;21.73;;;14.23;;
4521;SDS011;2273;48.464;11.926;2022-11-15T10:08:54;19.50;;;13.27;;
4521;SDS011;2273;48.464;11.926;2022-11-15T10:11:24;21.67;;;13.60;;
4521;SDS011;2273;48.464;11.926;2022-11-15T10:13:52;26.93;;;14.03;;
4521;SDS011;2273;48.464;11.926;2022-11-15T10:24:30;21.83;;;13.40;;
4521;SDS011;2273;48.464;11.926;2022-11-15T10:27:00;22.00;;;13.97;;
4521;SDS011;2273;48.464;11.926;2022-11-15T10:29:25;20.30;;;13.13;;
4521;SDS011;2273;48.464;11.926;2022-11-15T10:31:51;22.43;;;13.67;;
4521;SDS011;2273;48.464;11.926;2022-11-15T10:34:18;20.20;;;13.23;;
4521;SDS011;2273;48.464;11.926;2022-11-15T10:36:45;23.20;;;13.00;;
4521;SDS011;2273;48.464;11.926;2022-11-15T10:39:21;20.33;;;13.00;;
4521;SDS011;2273;48.464;11.926;2022-11-15T10:41:46;18.90;;;12.57;;
4521;SDS011;2273;48.464;11.926;2022-11-15T10:47:23;22.37;;;13.60;;
4521;SDS011;2273;48.464;11.926;2022-11-15T10:49:55;20.50;;;13.80;;
4521;SDS011;2273;48.464;11.926;2022-11-15T10:52:22;22.53;;;14.03;;
4521;SDS011;2273;48.464;11.926;2022-11-15T10:54:56;21.17;;;13.70;;
4521;SDS011;2273;48.464;11.926;2022-11-15T10:57:25;26.87;;;12.87;;
4521;SDS011;2273;48.464;11.926;2022-11-15T11:00:38;19.43;;;12.97;;
4521;SDS011;2273;48.464;11.926;2022-11-15T11:02:56;19.30;;;12.50;;
4521;SDS011;2273;48.464;11.926;2022-11-15T11:05:32;20.70;;;12.87;;
4521;SDS011;2273;48.464;11.926;2022-11-15T11:08:01;18.10;;;11.97;;
4521;SDS011;2273;48.464;11.926;2022-11-15T11:10:28;17.93;;;12.10;;
4521;SDS011;2273;48.464;11.926;2022-11-15T11:12:54;22.10;;;11.67;;
4521;SDS011;2273;48.464;11.926;2022-11-15T11:15:20;18.00;;;11.30;;
4521;SDS011;2273;48.464;11.926;2022-11-15T11:17:51;17.80;;;11.60;;
4521;SDS011;2273;48.464;11.926;2022-11-15T11:20:30;17.70;;;12.20;;
4521;SDS011;2273;48.464;11.926;2022-11-15T11:26:10;18.63;;;12.00;;
4521;SDS011;2273;48.464;11.926;2022-11-15T11:37:19;13.20;;;9.97;;
4521;SDS011;2273;48.464;11.926;2022-11-15T11:45:48;10.50;;;7.13;;
4521;SDS011;2273;48.464;11.926;2022-11-15T11:51:15;9.80;;;6.30;;
4521;SDS011;2273;48.464;11.926;2022-11-15T11:53:54;8.83;;;6.50;;
4521;SDS011;2273;48.464;11.926;2022-11-15T11:56:26;8.27;;;6.53;;
4521;SDS011;2273;48.464;11.926;2022-11-15T11:58:55;8.30;;;6.50;;
4521;SDS011;2273;48.464;11.926;2022-11-15T12:14:36;10.43;;;6.83;;
4521;SDS011;2273;48.464;11.926;2022-11-15T12:17:07;8.20;;;6.57;;
4521;SDS011;2273;48.464;11.926;2022-11-15T12:19:34;10.77;;;6.70;;
4521;SDS011;2273;48.464;11.926;2022-11-15T12:22:04;10.40;;;7.27;;
4521;SDS011;2273;48.464;11.926;2022-11-15T12:25:00;9.60;;;7.10;;
4521;SDS011;2273;48.464;11.926;2022-11-15T12:27:33;8.37;;;6.10;;
4521;SDS011;2273;48.464;11.926;2022-11-15T12:30:12;8.43;;;6.20;;
4521;SDS011;2273;48.464;11.926;2022-11-15T12:32:55;8.03;;;6.37;;
4521;SDS011;2273;48.464;11.926;2022-11-15T12:35:41;11.43;;;7.50;;
4521;SDS011;2273;48.464;11.926;2022-11-15T12:38:11;10.43;;;7.27;;
4521;SDS011;2273;48.464;11.926;2022-11-15T12:40:38;10.50;;;7.20;;
4521;SDS011;2273;48.464;11.926;2022-11-15T12:43:38;26.10;;;7.10;;
4521;SDS011;2273;48.464;11.926;2022-11-15T12:46:05;12.20;;;7.30;;
4521;SDS011;2273;48.464;11.926;2022-11-15T12:50:59;10.70;;;7.27;;
4521;SDS011;2273;48.464;11.926;2022-11-15T12:53:32;9.47;;;7.00;;
4521;SDS011;2273;48.464;11.926;2022-11-15T12:58:46;8.87;;;6.67;;
4521;SDS011;2273;48.464;11.926;2022-11-15T13:06:50;10.00;;;7.27;;
4521;SDS011;2273;48.464;11.926;2022-11-15T13:11:57;11.73;;;7.67;;
4521;SDS011;2273;48.464;11.926;2022-11-15T13:17:24;8.00;;;6.17;;
4521;SDS011;2273;48.464;11.926;2022-11-15T13:22:29;10.83;;;8.30;;
4521;SDS011;2273;48.464;11.926;2022-11-15T13:27:47;12.37;;;8.80;;
4521;SDS011;2273;48.464;11.926;2022-11-15T13:30:16;11.93;;;8.70;;
4521;SDS011;2273;48.464;11.926;2022-11-15T13:32:45;11.10;;;8.27;;
4521;SDS011;2273;48.464;11.926;2022-11-15T13:35:18;12.40;;;8.07;;
4521;SDS011;2273;48.464;11.926;2022-11-15T13:37:45;13.37;;;8.43;;
4521;SDS011;2273;48.464;11.926;2022-11-15T13:42:42;11.80;;;8.43;;
4521;SDS011;2273;48.464;11.926;2022-11-15T13:45:11;11.13;;;8.40;;
4521;SDS011;2273;48.464;11.926;2022-11-15T13:47:39;11.20;;;8.07;;
4521;SDS011;2273;48.464;11.926;2022-11-15T13:50:04;13.00;;;8.60;;
4521;SDS011;2273;48.464;11.926;2022-11-15T13:52:31;13.03;;;9.27;;
4521;SDS011;2273;48.464;11.926;2022-11-15T13:55:17;10.40;;;8.17;;
4521;SDS011;2273;48.464;11.926;2022-11-15T13:57:54;15.17;;;8.87;;
4521;SDS011;2273;48.464;11.926;2022-11-15T14:00:30;11.90;;;8.80;;
4521;SDS011;2273;48.464;11.926;2022-11-15T14:03:12;11.43;;;8.00;;
4521;SDS011;2273;48.464;11.926;2022-11-15T14:05:40;12.23;;;9.10;;
4521;SDS011;2273;48.464;11.926;2022-11-15T14:08:20;18.07;;;8.87;;
4521;SDS011;2273;48.464;11.926;2022-11-15T14:10:48;12.93;;;8.43;;
4521;SDS011;2273;48.464;11.926;2022-11-15T14:13:26;10.93;;;8.33;;
4521;SDS011;2273;48.464;11.926;2022-11-15T14:15:53;12.00;;;9.30;;
4521;SDS011;2273;48.464;11.926;2022-11-15T14:21:08;14.80;;;9.10;;
4521;SDS011;2273;48.464;11.926;2022-11-15T14:23:34;13.10;;;9.47;;
4521;SDS011;2273;48.464;11.926;2022-11-15T14:26:00;13.63;;;9.87;;
4521;SDS011;2273;48.464;11.926;2022-11-15T14:30:51;14.47;;;9.80;;
4521;SDS011;2273;48.464;11.926;2022-11-15T14:33:20;20.00;;;9.10;;
4521;SDS011;2273;48.464;11.926;2022-11-15T14:35:45;15.20;;;10.50;;
4521;SDS011;2273;48.464;11.926;2022-11-15T14:38:11;15.37;;;9.87;;
4521;SDS011;2273;48.464;11.926;2022-11-15T14:40:36;14.10;;;9.60;;
4521;SDS011;2273;48.464;11.926;2022-11-15T14:43:02;15.57;;;10.23;;
4521;SDS011;2273;48.464;11.926;2022-11-15T14:45:27;15.20;;;9.83;;
4521;SDS011;2273;48.464;11.926;2022-11-15T14:47:53;15.33;;;10.30;;
4521;SDS011;2273;48.464;11.926;2022-11-15T14:50:19;16.23;;;10.53;;
4521;SDS011;2273;48.464;11.926;2022-11-15T14:52:45;18.10;;;10.43;;
4521;SDS011;2273;48.464;11.926;2022-11-15T14:57:50;18.70;;;9.30;;
4521;SDS011;2273;48.464;11.926;2022-11-15T15:00:17;14.40;;;8.70;;
4521;SDS011;2273;48.464;11.926;2022-11-15T15:02:43;13.60;;;9.33;;
4521;SDS011;2273;48.464;11.926;2022-11-15T15:05:14;12.60;;;9.40;;
4521;SDS011;2273;48.464;11.926;2022-11-15T15:07:39;12.80;;;9.17;;
4521;SDS011;2273;48.464;11.926;2022-11-15T15:10:05;15.23;;;10.37;;
4521;SDS011;2273;48.464;11.926;2022-11-15T15:12:30;15.27;;;10.40;;
4521;SDS011;2273;48.464;11.926;2022-11-15T15:14:56;15.77;;;10.20;;
4521;SDS011;2273;48.464;11.926;2022-11-15T15:17:21;20.90;;;11.87;;
4521;SDS011;2273;48.464;11.926;2022-11-15T15:19:47;17.37;;;11.40;;
4521;SDS011;2273;48.464;11.926;2022-11-15T15:22:15;20.50;;;11.67;;
4521;SDS011;2273;48.464;11.926;2022-11-15T15:24:42;20.53;;;12.47;;
4521;SDS011;2273;48.464;11.926;2022-11-15T15:27:09;25.80;;;13.70;;
4521;SDS011;2273;48.464;11.926;2022-11-15T15:29:34;21.30;;;12.93;;
4521;SDS011;2273;48.464;11.926;2022-11-15T15:32:00;18.83;;;13.10;;
4521;SDS011;2273;48.464;11.926;2022-11-15T15:34:25;19.77;;;11.80;;
4521;SDS011;2273;48.464;11.926;2022-11-15T15:37:06;20.33;;;12.10;;
4521;SDS011;2273;48.464;11.926;2022-11-15T15:39:41;22.23;;;12.40;;
4521;SDS011;2273;48.464;11.926;2022-11-15T15:42:07;21.20;;;12.00;;
4521;SDS011;2273;48.464;11.926;2022-11-15T15:44:32;16.63;;;10.60;;
4521;SDS011;2273;48.464;11.926;2022-11-15T15:46:58;15.67;;;10.73;;
4521;SDS011;2273;48.464;11.926;2022-11-15T15:49:23;16.13;;;11.10;;
4521;SDS011;2273;48.464;11.926;2022-11-15T15:51:49;18.87;;;12.10;;
4521;SDS011;2273;48.464;11.926;2022-11-15T15:54:14;20.17;;;11.33;;
4521;SDS011;2273;48.464;11.926;2022-11-15T15:56:39;20.60;;;11.30;;
4521;SDS011;2273;48.464;11.926;2022-11-15T15:59:05;20.50;;;11.37;;
4521;SDS011;2273;48.464;11.926;2022-11-15T16:01:30;19.60;;;11.97;;
4521;SDS011;2273;48.464;11.926;2022-11-15T16:03:56;23.37;;;13.47;;
4521;SDS011;2273;48.464;11.926;2022-11-15T16:06:40;20.47;;;13.10;;
4521;SDS011;2273;48.464;11.926;2022-11-15T16:09:12;21.80;;;14.10;;
4521;SDS011;2273;48.464;11.926;2022-11-15T16:11:39;24.83;;;13.50;;
4521;SDS011;2273;48.464;11.926;2022-11-15T16:14:05;22.17;;;11.30;;
4521;SDS011;2273;48.464;11.926;2022-11-15T16:16:30;16.93;;;10.60;;
4521;SDS011;2273;48.464;11.926;2022-11-15T16:18:55;15.53;;;11.03;;
4521;SDS011;2273;48.464;11.926;2022-11-15T16:21:21;16.43;;;9.90;;
4521;SDS011;2273;48.464;11.926;2022-11-15T16:23:46;18.33;;;9.93;;
4521;SDS011;2273;48.464;11.926;2022-11-15T16:26:15;13.70;;;9.43;;
4521;SDS011;2273;48.464;11.926;2022-11-15T16:28:45;12.87;;;8.60;;
4521;SDS011;2273;48.464;11.926;2022-11-15T16:31:11;19.03;;;10.60;;
4521;SDS011;2273;48.464;11.926;2022-11-15T16:33:37;14.30;;;8.90;;
4521;SDS011;2273;48.464;11.926;2022-11-15T16:36:03;22.77;;;10.40;;
4521;SDS011;2273;48.464;11.926;2022-11-15T16:38:30;22.77;;;12.10;;
4521;SDS011;2273;48.464;11.926;2022-11-15T16:40:55;15.57;;;10.67;;
4521;SDS011;2273;48.464;11.926;2022-11-15T16:43:21;20.50;;;12.53;;
4521;SDS011;2273;48.464;11.926;2022-11-15T16:45:46;19.30;;;12.60;;
4521;SDS011;2273;48.464;11.926;2022-11-15T16:48:23;19.77;;;11.77;;
4521;SDS011;2273;48.464;11.926;2022-11-15T16:50:50;30.97;;;14.50;;
4521;SDS011;2273;48.464;11.926;2022-11-15T16:53:15;23.27;;;14.43;;
4521;SDS011;2273;48.464;11.926;2022-11-15T16:55:41;32.37;;;16.67;;
4521;SDS011;2273;48.464;11.926;2022-11-15T16:58:07;40.90;;;21.00;;
4521;SDS011;2273;48.464;11.926;2022-11-15T17:00:33;75.83;;;33.00;;
4521;SDS011;2273;48.464;11.926;2022-11-15T17:02:59;107.43;;;45.57;;
4521;SDS011;2273;48.464;11.926;2022-11-15T17:05:24;70.70;;;32.07;;
4521;SDS011;2273;48.464;11.926;2022-11-15T17:07:52;58.87;;;29.50;;
4521;SDS011;2273;48.464;11.926;2022-11-15T17:10:18;47.03;;;27.10;;
4521;SDS011;2273;48.464;11.926;2022-11-15T17:12:45;50.87;;;30.07;;
4521;SDS011;2273;48.464;11.926;2022-11-15T17:15:11;45.57;;;26.50;;
4521;SDS011;2273;48.464;11.926;2022-11-15T17:17:37;48.27;;;26.37;;
4521;SDS011;2273;48.464;11.926;2022-11-15T17:20:03;42.87;;;25.07;;
4521;SDS011;2273;48.464;11.926;2022-11-15T17:22:34;51.97;;;29.03;;
4521;SDS011;2273;48.464;11.926;2022-11-15T17:25:00;47.87;;;28.70;;
4521;SDS011;2273;48.464;11.926;2022-11-15T17:27:26;47.27;;;27.30;;
4521;SDS011;2273;48.464;11.926;2022-11-15T17:29:51;50.30;;;28.27;;
4521;SDS011;2273;48.464;11.926;2022-11-15T17:32:17;49.00;;;29.70;;